West Acres, Indiana
Current Conditions -  °F | °C
As of 2:53 PM on Friday 31 Oct 2014 (Local Time) from KMIE Reporting Station
Light Rain Light Rain  
Wind Chill: 29°   Ceiling: 2200
Heat Index: 39°   Visibility: 8mi
Dew Point: 36°   Wind: 22mph
Humidity: 89%   Direction: 310°NW
Pressure: 29.93"   Gusts: 25mph
Location:  40.2341°N, 85.4639°W
Report Text: KMIE 311853Z 31019G22KT 8SM -RA FEW011 BKN022 OVC038 04/02 A2993 RMK AO2 RAB1754 SLP136 P0001 T00390022
Loading
Personal Weather Stations






























Interactive Weather Map
Tropical Storm Tracking
New forecast layout! Learn more

10-Day Weather Forecast

Advertisements
Track Severe Weather on mobile